Flight Briefing for CPX363

Departure Arrival
Seattle-Tacoma International Airport (KSEA)
Click to view FAA NOTAMS
Fort Worth Alliance Airport (KAFW)
Click to view FAA NOTAMS
Departure Time Arrival Time
N/A N/A
Aircraft Distance
B767-300BDSF 1428nm
Departure METAR Arrival METAR
KSEA 252353Z 24015KT 10SM -RA SCT060 OVC090 11/05 A2988 RMK AO2 RAB50 SLP125 P0000 60000 T01060050 10156 20106 53004 KAFW 252353Z 01008KT 10SM FEW250 21/08 A3019 RMK AO2 SLP219 T02110083 10222 20194 55000
Suggested Route
SUMMA1 SUMMA J54 BKE J54 BOI J15 JNC ALS PNH MDANO WESAT2


View recent IFR Routes data
Notes



Charts and Procedures

Charts for KSEA
No chart available
Charts for KAFW
No chart available

Windy.com Weather Map